Terminal Aerodrome Forecast
Issued by NWS

Current Version | Previous Version | Text Only | Print | Product List | Glossary On
Versions: 1 2 3 4 5 6 7 8 9 10 11 12 13
000
FTUS42 KTBW 281100
TAFRSW
TAF
KRSW 281140Z 2812/2912 09005KT P6SM BKN080
     FM281500 11007KT P6SM VCSH SCT030 BKN080
     FM281700 15007KT P6SM VCTS SCT030CB BKN050
     FM282000 18006KT P6SM VCTS SCT030CB BKN050
     FM290000 VRB05KT P6SM VCSH BKN050
     FM290300 VRB03KT P6SM SCT050 BKN250=

USA.gov is the U.S. government's official web portal to all federal, state and local government web resources and services.